Time;durP1;ratioP1;P1;durP2;ratioP2;P2;SDS_P1;SDS_P2;PMS_P1;PMS_P2;Temp;Humidity;BMP_temperature;BMP_pressure;BME280_temperature;BME280_humidity;BME280_pressure;Samples;Min_cycle;Max_cycle;Signal;HPM_P1;HPM_P2
2021/07/23 00:00:01;;;;;;;28.35;19.77;;;;;;;;;;5023490;28;20026;-43
2021/07/23 00:02:27;;;;;;;24.17;13.30;;;;;;;;;;5023561;28;20033;-43
2021/07/23 00:04:53;;;;;;;19.60;14.02;;;;;;;;;;5023414;28;20093;-43
2021/07/23 00:07:19;;;;;;;16.02;11.25;;;;;;;;;;5024277;28;20030;-43
2021/07/23 00:09:45;;;;;;;27.75;12.55;;;;;;;;;;5023385;28;20037;-43
2021/07/23 00:12:11;;;;;;;26.55;15.57;;;;;;;;;;5024691;28;20722;-43
2021/07/23 00:14:40;;;;;;;17.75;10.98;;;;;;;;;;5023144;28;20051;-43
2021/07/23 00:17:06;;;;;;;28.60;19.50;;;;;;;;;;5024394;28;20026;-44
2021/07/23 00:19:32;;;;;;;23.85;16.30;;;;;;;;;;5023375;28;20665;-44
2021/07/23 00:21:58;;;;;;;20.30;13.65;;;;;;;;;;5022985;28;20029;-43
2021/07/23 00:24:24;;;;;;;23.80;14.15;;;;;;;;;;5043880;28;20461;-43
2021/07/23 00:26:51;;;;;;;22.48;13.75;;;;;;;;;;5075138;28;20032;-44
2021/07/23 00:29:18;;;;;;;67.63;44.90;;;;;;;;;;5074966;28;20021;-43
2021/07/23 00:31:46;;;;;;;24.90;15.65;;;;;;;;;;5075175;28;20464;-44
2021/07/23 00:34:12;;;;;;;17.02;12.35;;;;;;;;;;5075076;28;20025;-43
2021/07/23 00:36:38;;;;;;;21.90;15.27;;;;;;;;;;5075097;28;20401;-44
2021/07/23 00:39:04;;;;;;;27.85;17.98;;;;;;;;;;5074675;28;20182;-44
2021/07/23 00:41:30;;;;;;;25.77;17.65;;;;;;;;;;5074610;28;20036;-44
2021/07/23 00:43:56;;;;;;;35.20;24.88;;;;;;;;;;5074650;28;20017;-43
2021/07/23 00:46:28;;;;;;;24.02;17.48;;;;;;;;;;5074626;28;20028;-43
2021/07/23 00:48:54;;;;;;;15.02;10.77;;;;;;;;;;5074801;28;20025;-44
2021/07/23 00:51:20;;;;;;;16.27;9.82;;;;;;;;;;5074578;28;20103;-43
2021/07/23 00:53:46;;;;;;;13.25;9.20;;;;;;;;;;5074454;28;20070;-44
2021/07/23 00:56:13;;;;;;;32.35;23.40;;;;;;;;;;5074419;28;20067;-44
2021/07/23 00:58:39;;;;;;;29.85;22.15;;;;;;;;;;5074409;28;20031;-45
2021/07/23 01:01:05;;;;;;;27.58;17.90;;;;;;;;;;5074446;28;20111;-45
2021/07/23 01:03:32;;;;;;;21.63;15.57;;;;;;;;;;5074317;28;20388;-43
2021/07/23 01:05:58;;;;;;;18.10;11.35;;;;;;;;;;5074338;28;20049;-44
2021/07/23 01:08:24;;;;;;;15.82;9.05;;;;;;;;;;5074624;28;20017;-45
2021/07/23 01:10:50;;;;;;;11.52;8.32;;;;;;;;;;5074395;28;20028;-44
2021/07/23 01:13:16;;;;;;;12.95;8.43;;;;;;;;;;5073931;28;20016;-44
2021/07/23 01:15:42;;;;;;;12.32;7.45;;;;;;;;;;5073887;28;20052;-44
2021/07/23 01:18:09;;;;;;;9.27;7.38;;;;;;;;;;5074170;28;20427;-44
2021/07/23 01:20:35;;;;;;;10.38;7.40;;;;;;;;;;5073853;28;20485;-43
2021/07/23 01:23:02;;;;;;;11.10;7.47;;;;;;;;;;5073832;28;20433;-44
2021/07/23 01:25:28;;;;;;;13.75;8.88;;;;;;;;;;5074134;28;20024;-45
2021/07/23 01:27:55;;;;;;;12.90;8.27;;;;;;;;;;5074110;28;20370;-44
2021/07/23 01:30:22;;;;;;;18.05;9.35;;;;;;;;;;5073747;28;20025;-43
2021/07/23 01:32:48;;;;;;;12.95;9.00;;;;;;;;;;5073689;28;20016;-43
2021/07/23 01:35:14;;;;;;;14.55;9.57;;;;;;;;;;5073845;28;20028;-43
2021/07/23 01:37:41;;;;;;;13.45;8.93;;;;;;;;;;5073633;28;20031;-44
2021/07/23 01:40:08;;;;;;;17.05;11.63;;;;;;;;;;5073456;28;20024;-44
2021/07/23 01:42:35;;;;;;;18.25;11.55;;;;;;;;;;5073566;28;20096;-44
2021/07/23 01:45:01;;;;;;;19.52;13.30;;;;;;;;;;5073349;28;20419;-44
2021/07/23 01:47:27;;;;;;;18.17;12.43;;;;;;;;;;5073300;28;20477;-44
2021/07/23 01:49:53;;;;;;;15.35;10.07;;;;;;;;;;5073609;28;20040;-43
2021/07/23 01:52:22;;;;;;;13.43;9.43;;;;;;;;;;5073351;28;20025;-43
2021/07/23 01:54:48;;;;;;;14.73;10.40;;;;;;;;;;5073331;28;20034;-43
2021/07/23 01:57:14;;;;;;;14.15;10.35;;;;;;;;;;5073474;28;20024;-43
2021/07/23 01:59:40;;;;;;;13.48;9.45;;;;;;;;;;5073168;28;20017;-43
2021/07/23 02:02:06;;;;;;;11.70;9.15;;;;;;;;;;5073044;28;20041;-43
2021/07/23 02:04:35;;;;;;;13.15;9.27;;;;;;;;;;5073418;28;20020;-42
2021/07/23 02:07:02;;;;;;;13.48;8.35;;;;;;;;;;5073283;28;20020;-44
2021/07/23 02:09:28;;;;;;;16.30;8.98;;;;;;;;;;5073447;28;20028;-43
2021/07/23 02:11:54;;;;;;;11.15;8.80;;;;;;;;;;5073302;28;20028;-43
2021/07/23 02:14:20;;;;;;;14.70;8.65;;;;;;;;;;5073104;28;20094;-44
2021/07/23 02:16:46;;;;;;;14.55;9.15;;;;;;;;;;5073219;28;20060;-44
2021/07/23 02:19:12;;;;;;;13.20;8.90;;;;;;;;;;5073421;28;20024;-44
2021/07/23 02:21:40;;;;;;;15.30;9.00;;;;;;;;;;5073281;28;20068;-44
2021/07/23 02:24:08;;;;;;;11.90;8.77;;;;;;;;;;5073254;28;20028;-44
2021/07/23 02:26:34;;;;;;;13.90;8.75;;;;;;;;;;5073258;28;20038;-43
2021/07/23 02:29:00;;;;;;;11.45;8.70;;;;;;;;;;5073021;28;20023;-44
2021/07/23 02:31:26;;;;;;;10.27;7.63;;;;;;;;;;5073345;28;20020;-45
2021/07/23 02:33:53;;;;;;;11.60;8.48;;;;;;;;;;5073076;28;20021;-44
2021/07/23 02:36:19;;;;;;;12.38;8.10;;;;;;;;;;5073112;28;20028;-44
2021/07/23 02:38:45;;;;;;;13.55;8.10;;;;;;;;;;5073318;28;20025;-44
2021/07/23 02:41:11;;;;;;;14.07;8.15;;;;;;;;;;5072938;28;20054;-44
2021/07/23 02:43:37;;;;;;;14.95;8.75;;;;;;;;;;5073014;28;20047;-43
2021/07/23 02:46:03;;;;;;;12.73;8.45;;;;;;;;;;5072842;28;20101;-43
2021/07/23 02:48:29;;;;;;;12.07;7.65;;;;;;;;;;5072787;28;20032;-44
2021/07/23 02:50:56;;;;;;;11.23;8.27;;;;;;;;;;5072950;28;20047;-44
2021/07/23 02:53:22;;;;;;;12.93;8.70;;;;;;;;;;5072768;28;20098;-44
2021/07/23 02:55:51;;;;;;;11.80;8.32;;;;;;;;;;5072981;28;20021;-44
2021/07/23 02:58:17;;;;;;;10.75;7.82;;;;;;;;;;5072904;28;20028;-43
2021/07/23 03:00:44;;;;;;;12.07;8.32;;;;;;;;;;5072473;28;20542;-43
2021/07/23 03:03:10;;;;;;;12.40;8.73;;;;;;;;;;5072899;28;20056;-44
2021/07/23 03:05:36;;;;;;;10.98;8.13;;;;;;;;;;5072871;28;20103;-44
2021/07/23 03:08:02;;;;;;;12.00;8.20;;;;;;;;;;5072701;28;20024;-42
2021/07/23 03:10:28;;;;;;;12.05;8.85;;;;;;;;;;5072805;28;20021;-44
2021/07/23 03:12:54;;;;;;;9.52;7.35;;;;;;;;;;5074256;28;20103;-44
2021/07/23 03:15:20;;;;;;;10.52;7.93;;;;;;;;;;5076124;28;20037;-43
2021/07/23 03:17:46;;;;;;;11.07;8.40;;;;;;;;;;5076338;28;20033;-44
2021/07/23 03:20:13;;;;;;;12.32;8.75;;;;;;;;;;5076408;28;20024;-43
2021/07/23 03:22:39;;;;;;;11.25;7.70;;;;;;;;;;5076256;28;20040;-44
2021/07/23 03:25:05;;;;;;;14.85;9.05;;;;;;;;;;5076218;28;20066;-44
2021/07/23 03:27:31;;;;;;;16.38;8.45;;;;;;;;;;5076105;28;20024;-43
2021/07/23 03:29:57;;;;;;;16.67;9.77;;;;;;;;;;5076259;28;20508;-44
2021/07/23 03:32:23;;;;;;;12.30;8.63;;;;;;;;;;5075940;28;20024;-44
2021/07/23 03:34:49;;;;;;;16.88;10.00;;;;;;;;;;5076188;28;20485;-45
2021/07/23 03:37:15;;;;;;;18.65;11.43;;;;;;;;;;5076002;28;20020;-43
2021/07/23 03:39:41;;;;;;;18.38;10.52;;;;;;;;;;5075952;28;20024;-44
2021/07/23 03:42:07;;;;;;;20.17;11.20;;;;;;;;;;5075766;28;20481;-44
2021/07/23 03:44:33;;;;;;;21.20;11.50;;;;;;;;;;5075870;28;20052;-44
2021/07/23 03:46:59;;;;;;;16.38;11.82;;;;;;;;;;5075762;28;20029;-44
2021/07/23 03:49:26;;;;;;;18.77;11.45;;;;;;;;;;5075807;28;20096;-44
2021/07/23 03:51:52;;;;;;;17.75;11.40;;;;;;;;;;5075727;28;20049;-43
2021/07/23 03:54:18;;;;;;;18.55;11.23;;;;;;;;;;5075678;28;20515;-43
2021/07/23 03:56:44;;;;;;;19.42;11.32;;;;;;;;;;5075863;28;20047;-42
2021/07/23 03:59:10;;;;;;;19.52;11.52;;;;;;;;;;5075752;28;20449;-45
2021/07/23 04:01:36;;;;;;;16.15;10.02;;;;;;;;;;5075499;28;20059;-49
2021/07/23 04:04:02;;;;;;;14.27;9.50;;;;;;;;;;5075668;28;20027;-44
2021/07/23 04:06:28;;;;;;;19.48;10.18;;;;;;;;;;5075752;28;20031;-44
2021/07/23 04:08:55;;;;;;;17.38;10.00;;;;;;;;;;5075460;28;20025;-44
2021/07/23 04:11:30;;;;;;;17.08;10.07;;;;;;;;;;5075541;28;20056;-44
2021/07/23 04:13:56;;;;;;;16.95;9.77;;;;;;;;;;5074277;28;20020;-44
2021/07/23 04:16:22;;;;;;;14.95;9.70;;;;;;;;;;5075143;28;20052;-45
2021/07/23 04:18:48;;;;;;;18.05;10.65;;;;;;;;;;5075294;28;20420;-44
2021/07/23 04:21:14;;;;;;;16.70;10.07;;;;;;;;;;5075086;28;20083;-44
2021/07/23 04:23:40;;;;;;;15.13;10.63;;;;;;;;;;5074956;28;20013;-44
2021/07/23 04:26:08;;;;;;;15.68;10.20;;;;;;;;;;5075373;28;20025;-44
2021/07/23 04:28:34;;;;;;;16.73;9.95;;;;;;;;;;5075091;28;20021;-44
2021/07/23 04:31:01;;;;;;;17.83;10.75;;;;;;;;;;5073995;28;20044;-43
2021/07/23 04:33:28;;;;;;;13.93;10.20;;;;;;;;;;5074917;28;20025;-44
2021/07/23 04:35:54;;;;;;;17.05;9.95;;;;;;;;;;5075035;28;20021;-44
2021/07/23 04:38:20;;;;;;;19.48;10.55;;;;;;;;;;5074853;28;20028;-44
2021/07/23 04:40:46;;;;;;;18.70;11.20;;;;;;;;;;5074843;28;20464;-46
2021/07/23 04:43:12;;;;;;;23.15;12.65;;;;;;;;;;5074912;28;20035;-45
2021/07/23 04:45:38;;;;;;;16.58;10.85;;;;;;;;;;5074817;28;20059;-44
2021/07/23 04:48:04;;;;;;;18.75;11.05;;;;;;;;;;5074943;28;20480;-44
2021/07/23 04:50:30;;;;;;;15.25;10.13;;;;;;;;;;5074998;28;20024;-44
2021/07/23 04:52:57;;;;;;;17.23;11.23;;;;;;;;;;5074978;28;20380;-44
2021/07/23 04:55:24;;;;;;;23.63;13.98;;;;;;;;;;5074758;28;20021;-43
2021/07/23 04:57:50;;;;;;;19.80;11.68;;;;;;;;;;5074600;28;20025;-44
2021/07/23 05:00:17;;;;;;;19.42;11.63;;;;;;;;;;5074515;28;20045;-44
2021/07/23 05:02:43;;;;;;;18.20;12.07;;;;;;;;;;5074561;28;20033;-44
2021/07/23 05:05:13;;;;;;;19.30;13.13;;;;;;;;;;5074705;28;20104;-44
2021/07/23 05:07:42;;;;;;;19.63;13.43;;;;;;;;;;5074721;28;20036;-44
2021/07/23 05:10:09;;;;;;;21.15;13.65;;;;;;;;;;5074351;28;20473;-44
2021/07/23 05:12:35;;;;;;;22.33;14.30;;;;;;;;;;5074509;28;20032;-45
2021/07/23 05:15:02;;;;;;;20.15;11.20;;;;;;;;;;5074177;28;20401;-43
2021/07/23 05:17:28;;;;;;;21.50;10.68;;;;;;;;;;5074229;28;20459;-43
2021/07/23 05:19:54;;;;;;;18.98;9.75;;;;;;;;;;5074202;28;20103;-44
2021/07/23 05:22:23;;;;;;;20.00;11.02;;;;;;;;;;5074319;28;20039;-44
2021/07/23 05:24:49;;;;;;;22.02;12.85;;;;;;;;;;5074273;28;20107;-43
2021/07/23 05:27:16;;;;;;;15.73;9.80;;;;;;;;;;5073925;28;20024;-44
2021/07/23 05:29:42;;;;;;;14.48;9.52;;;;;;;;;;5074180;28;20033;-44
2021/07/23 05:32:08;;;;;;;12.90;9.05;;;;;;;;;;5073887;28;20085;-44
2021/07/23 05:34:34;;;;;;;22.65;14.55;;;;;;;;;;5073582;28;20056;-44
2021/07/23 05:37:00;;;;;;;17.27;9.88;;;;;;;;;;5073646;28;20027;-44
2021/07/23 05:39:26;;;;;;;16.98;12.30;;;;;;;;;;5073568;28;20032;-44
2021/07/23 05:41:52;;;;;;;18.42;11.25;;;;;;;;;;5073750;28;20430;-44
2021/07/23 05:44:19;;;;;;;27.95;17.40;;;;;;;;;;5073600;28;20048;-44
2021/07/23 05:46:47;;;;;;;14.80;10.05;;;;;;;;;;5073846;28;20504;-44
2021/07/23 05:49:13;;;;;;;14.32;9.73;;;;;;;;;;5073601;28;20530;-45
2021/07/23 05:51:39;;;;;;;14.18;8.45;;;;;;;;;;5073823;28;20115;-44
2021/07/23 05:54:05;;;;;;;11.57;7.70;;;;;;;;;;5073654;28;20020;-46
2021/07/23 05:56:31;;;;;;;14.88;8.75;;;;;;;;;;5073586;28;20021;-44
2021/07/23 05:58:57;;;;;;;18.52;8.18;;;;;;;;;;5072475;28;20055;-45
2021/07/23 06:01:23;;;;;;;11.55;7.60;;;;;;;;;;5073592;28;20032;-44
2021/07/23 06:03:49;;;;;;;13.85;7.93;;;;;;;;;;5073549;28;20051;-44
2021/07/23 06:06:15;;;;;;;11.27;7.82;;;;;;;;;;5073682;28;20028;-44
2021/07/23 06:08:42;;;;;;;10.23;7.82;;;;;;;;;;5073400;28;20052;-43
2021/07/23 06:11:08;;;;;;;13.23;7.78;;;;;;;;;;5073497;28;20051;-43
2021/07/23 06:13:37;;;;;;;13.10;7.82;;;;;;;;;;5073384;28;20473;-43
2021/07/23 06:16:07;;;;;;;12.23;8.55;;;;;;;;;;5073093;28;20389;-44
2021/07/23 06:18:34;;;;;;;17.98;7.75;;;;;;;;;;5073184;28;20029;-44
2021/07/23 06:21:00;;;;;;;15.68;8.55;;;;;;;;;;5073059;28;20068;-44
2021/07/23 06:23:26;;;;;;;15.70;8.05;;;;;;;;;;5073452;28;20021;-44
2021/07/23 06:25:52;;;;;;;10.90;7.10;;;;;;;;;;5073352;28;20025;-45
2021/07/23 06:28:18;;;;;;;12.55;8.18;;;;;;;;;;5073397;28;20411;-45
2021/07/23 06:30:45;;;;;;;15.15;8.45;;;;;;;;;;5073089;28;20020;-43
2021/07/23 06:33:11;;;;;;;11.27;8.18;;;;;;;;;;5073397;28;20043;-43
2021/07/23 06:35:37;;;;;;;11.93;7.70;;;;;;;;;;5073327;28;20530;-43
2021/07/23 06:38:04;;;;;;;11.75;7.97;;;;;;;;;;5073262;28;20383;-45
2021/07/23 06:40:30;;;;;;;12.15;7.63;;;;;;;;;;5072998;28;20028;-44
2021/07/23 06:42:56;;;;;;;11.25;7.22;;;;;;;;;;5073266;28;20052;-44
2021/07/23 06:45:22;;;;;;;13.05;7.10;;;;;;;;;;5073292;28;20056;-44
2021/07/23 06:47:48;;;;;;;14.02;7.82;;;;;;;;;;5076580;28;20037;-43
2021/07/23 06:50:14;;;;;;;11.40;7.53;;;;;;;;;;5077297;28;20021;-44
2021/07/23 06:52:40;;;;;;;11.30;8.27;;;;;;;;;;5077312;28;20027;-44
2021/07/23 06:55:07;;;;;;;9.52;6.47;;;;;;;;;;5076983;28;20086;-45
2021/07/23 06:57:34;;;;;;;21.35;10.30;;;;;;;;;;5077068;28;20027;-46
2021/07/23 07:00:00;;;;;;;16.45;8.70;;;;;;;;;;5076945;28;20029;-46
2021/07/23 07:02:26;;;;;;;11.10;6.68;;;;;;;;;;5076748;28;20039;-44
2021/07/23 07:04:52;;;;;;;14.52;6.55;;;;;;;;;;5076904;28;20021;-45
2021/07/23 07:07:18;;;;;;;18.70;13.25;;;;;;;;;;5076709;28;20060;-45
2021/07/23 07:09:44;;;;;;;18.38;12.70;;;;;;;;;;5076814;28;20032;-43
2021/07/23 07:12:10;;;;;;;25.60;15.48;;;;;;;;;;5076678;28;20019;-44
2021/07/23 07:14:37;;;;;;;12.77;8.18;;;;;;;;;;5076264;28;20031;-44
2021/07/23 07:17:04;;;;;;;26.48;16.08;;;;;;;;;;5076710;28;20024;-44
2021/07/23 07:19:30;;;;;;;16.23;10.52;;;;;;;;;;5076472;28;20032;-44
2021/07/23 07:21:56;;;;;;;16.48;8.27;;;;;;;;;;5076608;28;20040;-43
2021/07/23 07:24:23;;;;;;;15.93;9.35;;;;;;;;;;5076318;28;20511;-45
2021/07/23 07:26:50;;;;;;;13.52;8.13;;;;;;;;;;5076372;28;20414;-44
2021/07/23 07:29:17;;;;;;;13.02;8.02;;;;;;;;;;5076357;28;20052;-46
2021/07/23 07:31:43;;;;;;;17.25;10.75;;;;;;;;;;5076363;28;20017;-45
2021/07/23 07:34:09;;;;;;;18.63;11.68;;;;;;;;;;5076383;28;20460;-43
2021/07/23 07:36:36;;;;;;;13.10;8.60;;;;;;;;;;5076299;28;20050;-44
2021/07/23 07:39:02;;;;;;;11.82;8.60;;;;;;;;;;5075950;28;20074;-44
2021/07/23 07:41:28;;;;;;;27.60;17.00;;;;;;;;;;5076255;28;20120;-44
2021/07/23 07:43:56;;;;;;;17.35;10.35;;;;;;;;;;5076017;28;20017;-44
2021/07/23 07:46:23;;;;;;;26.50;15.55;;;;;;;;;;5076193;28;20028;-45
2021/07/23 07:48:49;;;;;;;12.85;7.10;;;;;;;;;;5075971;28;20530;-43
2021/07/23 07:51:15;;;;;;;12.65;6.55;;;;;;;;;;5075827;28;20056;-43
2021/07/23 07:53:42;;;;;;;11.20;6.25;;;;;;;;;;5075895;28;20024;-43
2021/07/23 07:56:08;;;;;;;12.98;6.13;;;;;;;;;;5075956;28;20088;-43
2021/07/23 07:58:34;;;;;;;12.52;5.55;;;;;;;;;;5075277;28;20095;-43
2021/07/23 08:01:04;;;;;;;14.07;8.48;;;;;;;;;;5075627;28;20043;-45
2021/07/23 08:03:30;;;;;;;13.75;6.63;;;;;;;;;;5075767;28;20032;-45
2021/07/23 08:06:01;;;;;;;23.20;15.23;;;;;;;;;;5075860;28;20095;-45
2021/07/23 08:08:27;;;;;;;19.92;10.52;;;;;;;;;;5075808;28;20032;-45
2021/07/23 08:10:53;;;;;;;20.17;13.98;;;;;;;;;;5075555;28;20047;-44
2021/07/23 08:13:19;;;;;;;8.75;5.40;;;;;;;;;;5075629;28;20149;-44
2021/07/23 08:15:46;;;;;;;10.40;5.07;;;;;;;;;;5075208;28;20047;-44
2021/07/23 08:18:14;;;;;;;12.10;6.32;;;;;;;;;;5075973;28;20480;-44
2021/07/23 08:20:41;;;;;;;11.85;6.55;;;;;;;;;;5075455;28;20079;-45
2021/07/23 08:23:07;;;;;;;8.98;6.75;;;;;;;;;;5075347;28;20384;-43
2021/07/23 08:25:34;;;;;;;8.95;5.18;;;;;;;;;;5071814;28;20014;-45
2021/07/23 08:28:00;;;;;;;7.07;4.50;;;;;;;;;;5054063;28;20039;-43
2021/07/23 08:30:26;;;;;;;5.28;4.47;;;;;;;;;;5053818;28;20025;-45
2021/07/23 08:32:53;;;;;;;10.48;4.60;;;;;;;;;;5053540;28;20036;-43
2021/07/23 08:35:20;;;;;;;6.68;4.15;;;;;;;;;;5052785;28;20029;-43
2021/07/23 08:37:46;;;;;;;7.22;4.13;;;;;;;;;;5054030;28;20386;-44
2021/07/23 08:40:12;;;;;;;10.77;6.45;;;;;;;;;;5054559;28;20025;-44
2021/07/23 08:42:39;;;;;;;14.80;7.85;;;;;;;;;;5054541;28;20029;-44
2021/07/23 08:45:06;;;;;;;9.52;4.20;;;;;;;;;;5053616;28;20045;-45
2021/07/23 08:47:32;;;;;;;9.13;6.43;;;;;;;;;;5053972;28;20039;-44
2021/07/23 08:49:58;;;;;;;9.35;6.40;;;;;;;;;;5053942;28;20096;-44
2021/07/23 08:52:44;;;;;;;18.77;7.40;;;;;;;;;;5053897;28;20025;-43
2021/07/23 08:55:12;;;;;;;12.70;4.68;;;;;;;;;;5053567;28;20052;-43
2021/07/23 08:57:38;;;;;;;6.65;3.67;;;;;;;;;;5053110;28;20087;-44
2021/07/23 09:00:14;;;;;;;13.80;7.28;;;;;;;;;;5051884;28;20473;-42
2021/07/23 09:02:52;;;;;;;14.95;8.40;;;;;;;;;;5050901;28;20033;-45
2021/07/23 09:05:19;;;;;;;11.57;6.82;;;;;;;;;;5053145;28;20033;-43
2021/07/23 09:07:45;;;;;;;10.70;5.95;;;;;;;;;;5053531;28;20468;-47
2021/07/23 09:10:12;;;;;;;72.60;61.00;;;;;;;;;;5051753;28;20027;-45
2021/07/23 09:12:42;;;;;;;26.05;16.98;;;;;;;;;;5052870;28;20104;-43
2021/07/23 09:15:18;;;;;;;18.33;16.35;;;;;;;;;;5052763;28;20118;-42
2021/07/23 09:17:44;;;;;;;5.97;5.07;;;;;;;;;;5050827;28;20504;-44
2021/07/23 09:20:11;;;;;;;4.53;4.05;;;;;;;;;;5052804;28;20017;-43
2021/07/23 09:22:48;;;;;;;38.63;20.60;;;;;;;;;;5052729;28;20037;-44
2021/07/23 09:25:15;;;;;;;20.45;10.80;;;;;;;;;;5052683;28;20043;-44
2021/07/23 09:27:41;;;;;;;11.25;5.63;;;;;;;;;;5051874;28;20380;-44
2021/07/23 09:30:09;;;;;;;7.97;4.32;;;;;;;;;;5053050;28;20101;-44
2021/07/23 09:32:35;;;;;;;6.63;4.10;;;;;;;;;;5053819;28;20377;-44
2021/07/23 09:35:11;;;;;;;8.38;4.50;;;;;;;;;;5053847;28;20025;-44
2021/07/23 09:37:52;;;;;;;5.80;4.07;;;;;;;;;;5053707;28;20082;-44
2021/07/23 09:40:19;;;;;;;4.00;3.60;;;;;;;;;;5053621;28;20021;-44
2021/07/23 09:42:46;;;;;;;6.93;4.53;;;;;;;;;;5053723;28;20501;-44
2021/07/23 09:45:12;;;;;;;6.57;4.72;;;;;;;;;;5053494;28;20055;-44
2021/07/23 09:47:38;;;;;;;9.15;4.18;;;;;;;;;;5053694;28;20029;-44
2021/07/23 09:50:05;;;;;;;10.65;3.85;;;;;;;;;;5053433;28;20028;-44
2021/07/23 09:52:33;;;;;;;5.85;4.50;;;;;;;;;;5053501;28;20070;-44
2021/07/23 09:54:59;;;;;;;6.32;3.55;;;;;;;;;;5053363;28;20017;-52
2021/07/23 09:57:27;;;;;;;7.82;4.05;;;;;;;;;;5053317;28;20425;-46
2021/07/23 10:00:10;;;;;;;21.20;14.38;;;;;;;;;;5053509;28;20028;-42
2021/07/23 10:02:43;;;;;;;8.88;6.38;;;;;;;;;;5052268;28;20499;-43
2021/07/23 10:05:13;;;;;;;8.38;7.03;;;;;;;;;;5050852;28;20025;-42
2021/07/23 10:07:39;;;;;;;5.43;3.80;;;;;;;;;;5051222;28;20512;-42
2021/07/23 10:10:08;;;;;;;10.40;4.18;;;;;;;;;;5053253;28;20025;-43
2021/07/23 10:12:36;;;;;;;8.55;5.43;;;;;;;;;;5053256;28;20030;-42
2021/07/23 10:15:03;;;;;;;8.43;6.38;;;;;;;;;;5052696;28;20083;-42
2021/07/23 10:17:29;;;;;;;6.70;3.80;;;;;;;;;;5053316;28;20112;-42
2021/07/23 10:19:57;;;;;;;5.25;3.67;;;;;;;;;;5053699;28;20032;-44
2021/07/23 10:22:26;;;;;;;5.82;3.70;;;;;;;;;;5052632;28;20037;-43
2021/07/23 10:24:52;;;;;;;5.95;4.28;;;;;;;;;;5053068;28;20174;-44
2021/07/23 10:27:18;;;;;;;5.95;4.28;;;;;;;;;;5053184;28;20025;-43
2021/07/23 10:29:51;;;;;;;18.25;11.57;;;;;;;;;;5053152;28;20032;-44
2021/07/23 10:32:43;;;;;;;8.55;5.82;;;;;;;;;;5053007;28;20578;-43
2021/07/23 10:35:09;;;;;;;18.35;9.80;;;;;;;;;;5051994;28;20076;-43
2021/07/23 10:37:44;;;;;;;7.95;4.55;;;;;;;;;;5052921;28;20040;-42
2021/07/23 10:40:11;;;;;;;6.65;4.28;;;;;;;;;;5052729;28;20075;-44
2021/07/23 10:42:40;;;;;;;6.50;4.68;;;;;;;;;;5052851;28;20033;-43
2021/07/23 10:45:16;;;;;;;4.13;3.53;;;;;;;;;;5053057;28;20359;-43
2021/07/23 10:47:44;;;;;;;6.80;4.07;;;;;;;;;;5052928;28;20036;-43
2021/07/23 10:50:23;;;;;;;7.35;4.05;;;;;;;;;;5052997;28;20068;-44
2021/07/23 10:52:49;;;;;;;6.93;3.90;;;;;;;;;;5052935;28;20025;-42
2021/07/23 10:55:21;;;;;;;11.43;4.63;;;;;;;;;;5053342;28;20402;-45
2021/07/23 10:58:07;;;;;;;6.15;4.15;;;;;;;;;;5052930;28;20029;-43
2021/07/23 11:00:52;;;;;;;11.95;8.02;;;;;;;;;;5052622;28;20036;-43
2021/07/23 11:03:37;;;;;;;15.73;11.55;;;;;;;;;;5053141;28;20108;-44
2021/07/23 11:06:23;;;;;;;53.92;43.72;;;;;;;;;;5052730;28;20029;-45
2021/07/23 11:08:50;;;;;;;8.50;4.28;;;;;;;;;;5052570;28;20037;-46
2021/07/23 11:11:17;;;;;;;8.05;5.38;;;;;;;;;;5052741;28;20021;-45
2021/07/23 11:13:44;;;;;;;9.82;4.00;;;;;;;;;;5052713;28;20029;-45
2021/07/23 11:16:11;;;;;;;6.45;5.50;;;;;;;;;;5052246;28;20103;-45
2021/07/23 11:18:37;;;;;;;5.07;3.58;;;;;;;;;;5051469;28;20021;-45
2021/07/23 11:21:05;;;;;;;4.95;3.95;;;;;;;;;;5052616;28;20036;-46
2021/07/23 11:23:32;;;;;;;6.00;4.57;;;;;;;;;;5052741;28;20017;-44
2021/07/23 11:25:58;;;;;;;10.63;8.05;;;;;;;;;;5052359;28;20025;-45
2021/07/23 11:28:25;;;;;;;8.23;3.92;;;;;;;;;;5052506;28;20025;-46
2021/07/23 11:30:54;;;;;;;6.85;4.15;;;;;;;;;;5052459;28;20540;-46
2021/07/23 11:33:27;;;;;;;9.63;4.40;;;;;;;;;;5053318;28;20040;-43
2021/07/23 11:35:54;;;;;;;6.07;3.83;;;;;;;;;;5055994;28;20029;-44
2021/07/23 11:38:22;;;;;;;8.18;6.05;;;;;;;;;;5056077;28;20029;-42
2021/07/23 11:40:48;;;;;;;5.45;4.03;;;;;;;;;;5055854;28;20509;-44
2021/07/23 11:43:23;;;;;;;8.65;6.43;;;;;;;;;;5055824;28;20032;-46
2021/07/23 11:45:50;;;;;;;8.23;4.00;;;;;;;;;;5055528;28;20028;-46
2021/07/23 11:48:16;;;;;;;4.80;3.80;;;;;;;;;;5055825;28;20547;-43
2021/07/23 11:50:52;;;;;;;8.23;5.35;;;;;;;;;;5055703;28;20099;-45
2021/07/23 11:53:18;;;;;;;6.95;5.88;;;;;;;;;;5055602;28;20025;-45
2021/07/23 11:55:44;;;;;;;6.70;4.88;;;;;;;;;;5055465;28;20029;-46
2021/07/23 11:58:21;;;;;;;10.27;5.95;;;;;;;;;;5055799;28;20070;-45
2021/07/23 12:00:47;;;;;;;15.20;10.10;;;;;;;;;;5055611;28;20037;-46
2021/07/23 12:03:17;;;;;;;11.05;7.45;;;;;;;;;;5055657;28;20032;-45
2021/07/23 12:05:44;;;;;;;11.77;7.55;;;;;;;;;;5055478;28;20037;-46
2021/07/23 12:08:10;;;;;;;16.08;8.63;;;;;;;;;;5055445;28;20040;-46
2021/07/23 12:10:39;;;;;;;6.90;4.40;;;;;;;;;;5055290;28;20036;-45
2021/07/23 12:13:11;;;;;;;6.25;4.38;;;;;;;;;;5055246;28;20130;-45
2021/07/23 12:15:57;;;;;;;14.30;8.90;;;;;;;;;;5055091;28;20128;-46
2021/07/23 12:18:24;;;;;;;12.75;9.20;;;;;;;;;;5055043;28;20025;-47
2021/07/23 12:20:50;;;;;;;5.18;4.65;;;;;;;;;;5055076;28;20465;-49
2021/07/23 12:23:26;;;;;;;6.65;3.65;;;;;;;;;;5055322;28;20107;-43
2021/07/23 12:25:53;;;;;;;6.45;5.43;;;;;;;;;;5055086;28;20049;-47
2021/07/23 12:28:19;;;;;;;46.55;30.42;;;;;;;;;;5055296;28;20155;-45
2021/07/23 12:30:46;;;;;;;48.75;25.83;;;;;;;;;;5055092;28;20106;-43
2021/07/23 12:33:19;;;;;;;42.90;24.00;;;;;;;;;;5054913;28;20033;-44
2021/07/23 12:35:56;;;;;;;12.45;9.82;;;;;;;;;;5054980;28;20108;-44
2021/07/23 12:38:22;;;;;;;9.68;6.63;;;;;;;;;;5054875;28;20032;-45
2021/07/23 12:40:49;;;;;;;8.70;6.50;;;;;;;;;;5054903;28;20086;-44
2021/07/23 12:43:17;;;;;;;6.35;3.72;;;;;;;;;;5054846;28;20397;-43
2021/07/23 12:45:43;;;;;;;9.07;5.03;;;;;;;;;;5054666;28;20036;-43
2021/07/23 12:48:20;;;;;;;5.88;3.78;;;;;;;;;;5054667;28;20033;-44
2021/07/23 12:50:59;;;;;;;10.02;3.88;;;;;;;;;;5054525;28;20033;-43
2021/07/23 12:53:25;;;;;;;4.97;3.80;;;;;;;;;;5054570;28;20032;-43
2021/07/23 12:56:07;;;;;;;5.82;4.15;;;;;;;;;;5054276;28;20033;-43
2021/07/23 12:58:47;;;;;;;8.90;4.28;;;;;;;;;;5054452;28;20075;-46
2021/07/23 13:01:13;;;;;;;6.13;3.60;;;;;;;;;;5054242;28;20048;-43
2021/07/23 13:03:40;;;;;;;6.90;3.80;;;;;;;;;;5054528;28;20373;-43
2021/07/23 13:06:07;;;;;;;4.22;3.47;;;;;;;;;;5054438;28;20083;-45
2021/07/23 13:08:33;;;;;;;52.67;39.65;;;;;;;;;;5054204;28;20112;-46
2021/07/23 13:11:00;;;;;;;46.83;34.03;;;;;;;;;;5054309;28;20028;-45
2021/07/23 13:13:26;;;;;;;26.58;18.40;;;;;;;;;;5054258;28;20109;-44
2021/07/23 13:15:52;;;;;;;17.73;11.48;;;;;;;;;;5053819;28;20489;-42
2021/07/23 13:18:18;;;;;;;25.13;16.75;;;;;;;;;;5054014;28;20029;-44
2021/07/23 13:20:44;;;;;;;7.10;4.75;;;;;;;;;;5053977;28;20385;-44
2021/07/23 13:23:10;;;;;;;42.03;30.45;;;;;;;;;;5054056;28;20021;-44
2021/07/23 13:25:37;;;;;;;31.45;24.48;;;;;;;;;;5053813;28;20469;-43
2021/07/23 13:28:03;;;;;;;6.57;5.20;;;;;;;;;;5053769;28;20024;-44
2021/07/23 13:30:29;;;;;;;13.27;9.85;;;;;;;;;;5053656;28;20372;-42
2021/07/23 13:32:55;;;;;;;23.08;14.05;;;;;;;;;;5053672;28;20021;-44
2021/07/23 13:35:21;;;;;;;23.00;14.23;;;;;;;;;;5053838;28;20057;-45
2021/07/23 13:37:52;;;;;;;5.82;4.30;;;;;;;;;;5053717;28;20465;-44
2021/07/23 13:40:21;;;;;;;24.55;15.93;;;;;;;;;;5053738;28;20499;-43
2021/07/23 13:42:48;;;;;;;4.75;3.97;;;;;;;;;;5053509;28;20507;-43
2021/07/23 13:45:15;;;;;;;5.47;4.05;;;;;;;;;;5053417;28;20029;-44
2021/07/23 13:47:42;;;;;;;5.68;4.20;;;;;;;;;;5053804;28;20033;-43
2021/07/23 13:50:09;;;;;;;8.88;4.72;;;;;;;;;;5053813;28;20503;-44
2021/07/23 13:52:36;;;;;;;28.48;18.30;;;;;;;;;;5053418;28;20033;-42
2021/07/23 13:55:02;;;;;;;26.27;20.23;;;;;;;;;;5053585;28;20100;-43
2021/07/23 13:57:28;;;;;;;9.70;7.38;;;;;;;;;;5052796;28;20359;-43
2021/07/23 13:59:54;;;;;;;26.25;16.73;;;;;;;;;;5051836;28;20366;-43
2021/07/23 14:02:20;;;;;;;36.25;17.30;;;;;;;;;;5052977;28;20040;-42
2021/07/23 14:04:48;;;;;;;11.35;5.35;;;;;;;;;;5053365;28;20075;-41
2021/07/23 14:07:15;;;;;;;7.55;5.10;;;;;;;;;;5053180;28;20481;-43
2021/07/23 14:09:41;;;;;;;5.90;4.22;;;;;;;;;;5053398;28;20425;-43
2021/07/23 14:12:07;;;;;;;6.70;3.80;;;;;;;;;;5053280;28;20023;-43
2021/07/23 14:14:34;;;;;;;4.65;3.85;;;;;;;;;;5052851;28;20029;-43
2021/07/23 14:17:00;;;;;;;12.80;4.63;;;;;;;;;;5053084;28;20473;-44
2021/07/23 14:19:26;;;;;;;4.93;3.75;;;;;;;;;;5053224;28;20033;-44
2021/07/23 14:21:53;;;;;;;3.95;3.42;;;;;;;;;;5053020;28;20064;-44
2021/07/23 14:24:19;;;;;;;7.47;4.03;;;;;;;;;;5053156;28;20104;-45
2021/07/23 14:26:45;;;;;;;5.45;3.78;;;;;;;;;;5052924;28;20033;-45
2021/07/23 14:29:11;;;;;;;4.43;3.90;;;;;;;;;;5042754;28;20017;-41